Time;durP1;ratioP1;P1;durP2;ratioP2;P2;SDS_P1;SDS_P2;PMS_P1;PMS_P2;Temp;Humidity;BMP_temperature;BMP_pressure;BME280_temperature;BME280_humidity;BME280_pressure;Samples;Min_cycle;Max_cycle;Signal;HPM_P1;HPM_P2
2022/05/28 00:00:49;;;;;;;;;;;21.60;99.90;;;;;;5093850;28;20003;-47
2022/05/28 00:03:15;;;;;;;;;;;21.60;99.90;;;;;;5094288;28;19919;-46
2022/05/28 00:05:40;;;;;;;;;;;21.60;99.90;;;;;;5076096;28;20311;-46
2022/05/28 00:08:06;;;;;;;;;;;21.60;99.90;;;;;;5094021;28;19912;-48
2022/05/28 00:10:33;;;;;;;;;;;21.60;99.90;;;;;;5094177;28;19954;-50
2022/05/28 00:12:59;;;;;;;;;;;21.60;99.90;;;;;;5093711;28;19908;-50
2022/05/28 00:15:24;;;;;;;;;;;21.60;99.90;;;;;;5094225;28;19965;-45
2022/05/28 00:17:50;;;;;;;;;;;21.60;99.90;;;;;;5094039;28;19912;-47
2022/05/28 00:20:16;;;;;;;;;;;21.60;99.90;;;;;;5093901;28;20316;-47
2022/05/28 00:22:43;;;;;;;;;;;21.60;99.90;;;;;;5093958;28;19947;-44
2022/05/28 00:25:10;;;;;;;;;;;21.50;99.90;;;;;;5093902;28;19999;-47
2022/05/28 00:27:36;;;;;;;;;;;21.50;99.90;;;;;;5095266;28;20269;-44
2022/05/28 00:30:01;;;;;;;;;;;21.50;99.90;;;;;;5098149;28;19914;-48
2022/05/28 00:32:27;;;;;;;;;;;21.50;99.90;;;;;;5097989;28;19994;-49
2022/05/28 00:34:52;;;;;;;;;;;21.50;99.90;;;;;;5098000;28;20341;-49
2022/05/28 00:37:18;;;;;;;;;;;21.50;99.90;;;;;;5098026;28;20270;-46
2022/05/28 00:39:43;;;;;;;;;;;21.50;99.90;;;;;;5097540;28;20335;-47
2022/05/28 00:42:09;;;;;;;;;;;21.50;99.90;;;;;;5097743;28;19915;-46
2022/05/28 00:44:34;;;;;;;;;;;21.50;99.90;;;;;;5097666;28;19957;-44
2022/05/28 00:47:00;;;;;;;;;;;21.50;99.90;;;;;;5097669;28;19940;-47
2022/05/28 00:49:29;;;;;;;;;;;21.50;99.90;;;;;;5097804;28;19909;-45
2022/05/28 00:51:55;;;;;;;;;;;21.50;99.90;;;;;;5097757;28;19908;-44
2022/05/28 00:54:20;;;;;;;;;;;21.50;99.90;;;;;;5097507;28;19920;-44
2022/05/28 00:56:46;;;;;;;;;;;21.50;99.90;;;;;;5079210;28;20385;-48
2022/05/28 00:59:12;;;;;;;;;;;21.50;99.90;;;;;;5097279;28;19962;-49
2022/05/28 01:01:41;;;;;;;;;;;21.50;99.90;;;;;;5097552;28;19908;-46
2022/05/28 01:04:26;;;;;;;;;;;21.50;99.90;;;;;;5097197;28;19978;-48
2022/05/28 01:07:10;;;;;;;;;;;21.50;99.90;;;;;;5097363;28;19908;-49
2022/05/28 01:09:41;;;;;;;;;;;21.50;99.90;;;;;;5097461;28;19960;-46
2022/05/28 01:12:10;;;;;;;;;;;21.50;99.90;;;;;;5097564;28;19909;-44
2022/05/28 01:14:44;;;;;;;;;;;21.50;99.90;;;;;;5097143;28;19923;-47
2022/05/28 01:17:13;;;;;;;;;;;21.50;99.90;;;;;;5097083;28;19912;-47
2022/05/28 01:20:06;;;;;;;;;;;21.50;99.90;;;;;;5097272;28;19912;-49
2022/05/28 01:22:37;;;;;;;;;;;21.50;99.90;;;;;;5058601;28;19908;-45
2022/05/28 01:25:12;;;;;;;;;;;21.50;99.90;;;;;;5096928;28;19912;-49
2022/05/28 01:27:39;;;;;;;;;;;21.50;99.90;;;;;;5097091;28;19908;-47
2022/05/28 01:30:07;;;;;;;;;;;21.50;99.90;;;;;;5096998;28;19908;-45
2022/05/28 01:32:33;;;;;;;;;;;21.50;99.90;;;;;;5096816;28;20388;-47
2022/05/28 01:35:00;;;;;;;;;;;21.50;99.90;;;;;;5096667;28;19919;-48
2022/05/28 01:37:26;;;;;;;;;;;21.50;99.90;;;;;;5096637;28;19918;-47
2022/05/28 01:39:54;;;;;;;;;;;21.50;99.90;;;;;;5096036;28;19995;-46
2022/05/28 01:42:19;;;;;;;;;;;21.50;99.90;;;;;;5096865;28;19991;-46
2022/05/28 01:44:46;;;;;;;;;;;21.50;99.90;;;;;;5096804;28;19946;-44
2022/05/28 01:47:14;;;;;;;;;;;21.50;99.90;;;;;;5096460;28;19912;-46
2022/05/28 01:49:40;;;;;;;;;;;21.50;99.90;;;;;;5078553;28;19908;-44
2022/05/28 01:52:06;;;;;;;;;;;21.50;99.90;;;;;;5096325;28;19954;-44
2022/05/28 01:54:38;;;;;;;;;;;21.40;99.90;;;;;;5096343;28;19965;-47
2022/05/28 01:57:04;;;;;;;;;;;21.50;99.90;;;;;;5096704;28;19916;-48
2022/05/28 01:59:31;;;;;;;;;;;21.50;99.90;;;;;;5096050;28;20016;-47
2022/05/28 02:01:58;;;;;;;;;;;21.50;99.90;;;;;;5096204;28;19916;-47
2022/05/28 02:04:24;;;;;;;;;;;21.50;99.90;;;;;;5096362;28;20359;-46
2022/05/28 02:06:50;;;;;;;;;;;21.50;99.90;;;;;;5096383;28;19919;-48
2022/05/28 02:09:19;;;;;;;;;;;21.50;99.90;;;;;;5095960;28;19916;-49
2022/05/28 02:11:44;;;;;;;;;;;21.50;99.90;;;;;;5096245;28;19908;-47
2022/05/28 02:14:10;;;;;;;;;;;21.50;99.90;;;;;;5095794;28;19994;-45
2022/05/28 02:16:54;;;;;;;;;;;21.50;99.90;;;;;;5095896;28;19912;-46
2022/05/28 02:19:36;;;;;;;;;;;21.40;99.90;;;;;;5095732;28;19935;-47
2022/05/28 02:22:07;;;;;;;;;;;21.40;99.90;;;;;;5096075;28;20006;-45
2022/05/28 02:24:37;;;;;;;;;;;21.40;99.90;;;;;;5095978;28;20358;-50
2022/05/28 02:27:05;;;;;;;;;;;21.40;99.90;;;;;;5077403;28;19999;-45
2022/05/28 02:29:32;;;;;;;;;;;21.40;99.90;;;;;;5095511;28;19908;-46
2022/05/28 02:31:57;;;;;;;;;;;21.40;99.90;;;;;;5095585;28;19908;-46
2022/05/28 02:34:23;;;;;;;;;;;21.40;99.90;;;;;;5095466;28;19958;-45
2022/05/28 02:36:48;;;;;;;;;;;21.40;99.90;;;;;;5095829;28;19912;-44
2022/05/28 02:39:14;;;;;;;;;;;21.40;99.90;;;;;;5096019;28;19908;-44
2022/05/28 02:41:39;;;;;;;;;;;21.40;99.90;;;;;;5095620;28;19908;-44
2022/05/28 02:44:05;;;;;;;;;;;21.40;99.90;;;;;;5095628;28;20028;-44
2022/05/28 02:46:30;;;;;;;;;;;21.40;99.90;;;;;;5077482;28;19962;-45
2022/05/28 02:48:56;;;;;;;;;;;21.40;99.90;;;;;;5077411;28;19908;-45
2022/05/28 02:51:22;;;;;;;;;;;21.40;99.90;;;;;;5095469;28;20045;-45
2022/05/28 02:53:49;;;;;;;;;;;21.40;99.90;;;;;;5095423;28;19920;-43
2022/05/28 02:56:14;;;;;;;;;;;21.40;99.90;;;;;;5095400;28;20377;-44
2022/05/28 02:58:40;;;;;;;;;;;21.40;99.90;;;;;;5095344;28;19912;-44
2022/05/28 03:01:38;;;;;;;;;;;21.40;99.90;;;;;;5095329;28;20403;-47
2022/05/28 03:04:04;;;;;;;;;;;21.40;99.90;;;;;;5039655;28;19912;-47
2022/05/28 03:06:30;;;;;;;;;;;21.40;99.90;;;;;;5095180;28;19908;-46
2022/05/28 03:08:55;;;;;;;;;;;21.40;99.90;;;;;;5095135;28;20385;-47
2022/05/28 03:11:21;;;;;;;;;;;21.40;99.90;;;;;;5095123;28;19908;-45
2022/05/28 03:13:47;;;;;;;;;;;21.40;99.90;;;;;;5094996;28;20434;-47
2022/05/28 03:16:12;;;;;;;;;;;21.40;99.90;;;;;;5094654;28;20393;-46
2022/05/28 03:18:38;;;;;;;;;;;21.30;99.90;;;;;;5095030;28;19912;-47
2022/05/28 03:21:04;;;;;;;;;;;21.30;99.90;;;;;;5094697;28;19912;-50
2022/05/28 03:23:30;;;;;;;;;;;21.40;99.90;;;;;;5094645;28;19958;-48
2022/05/28 03:25:55;;;;;;;;;;;21.30;99.90;;;;;;5094443;28;20290;-47
2022/05/28 03:28:21;;;;;;;;;;;21.40;99.90;;;;;;5094866;28;19995;-48
2022/05/28 03:30:46;;;;;;;;;;;21.30;99.90;;;;;;5094651;28;19915;-48
2022/05/28 03:33:12;;;;;;;;;;;21.30;99.90;;;;;;5094398;28;19908;-45
2022/05/28 03:35:37;;;;;;;;;;;21.30;99.90;;;;;;5094333;28;19988;-47
2022/05/28 03:38:07;;;;;;;;;;;21.30;99.90;;;;;;5094557;28;19923;-44
2022/05/28 03:40:33;;;;;;;;;;;21.30;99.90;;;;;;5094955;28;19915;-46
2022/05/28 03:42:59;;;;;;;;;;;21.30;99.90;;;;;;5094565;28;19912;-47
2022/05/28 03:45:25;;;;;;;;;;;21.30;99.90;;;;;;5076402;28;19908;-48
2022/05/28 03:47:51;;;;;;;;;;;21.30;99.90;;;;;;5094581;28;19908;-46
2022/05/28 03:50:16;;;;;;;;;;;21.30;99.90;;;;;;5076304;28;19908;-50
2022/05/28 03:52:42;;;;;;;;;;;21.30;99.90;;;;;;5094236;28;19908;-47
2022/05/28 03:55:07;;;;;;;;;;;21.30;99.90;;;;;;5093952;28;19920;-50
2022/05/28 03:57:33;;;;;;;;;;;21.30;99.90;;;;;;5094055;28;19949;-50
2022/05/28 03:59:59;;;;;;;;;;;21.30;99.90;;;;;;5094509;28;20259;-49
2022/05/28 04:02:25;;;;;;;;;;;21.30;99.90;;;;;;5093937;28;19912;-48
2022/05/28 04:04:51;;;;;;;;;;;21.30;99.90;;;;;;5094357;28;19995;-44
2022/05/28 04:07:17;;;;;;;;;;;21.30;99.90;;;;;;5093993;28;19947;-49
2022/05/28 04:09:43;;;;;;;;;;;21.30;99.90;;;;;;5093974;28;19908;-49
2022/05/28 04:12:08;;;;;;;;;;;21.30;99.90;;;;;;5094427;28;20282;-48
2022/05/28 04:14:34;;;;;;;;;;;21.30;99.90;;;;;;5093774;28;19950;-46
2022/05/28 04:17:00;;;;;;;;;;;21.30;99.90;;;;;;5093828;28;19908;-46
2022/05/28 04:19:25;;;;;;;;;;;21.30;99.90;;;;;;5094085;28;19908;-47
2022/05/28 04:21:50;;;;;;;;;;;21.30;99.90;;;;;;5094092;28;20327;-48
2022/05/28 04:24:16;;;;;;;;;;;21.30;99.90;;;;;;5093845;28;19908;-48
2022/05/28 04:26:42;;;;;;;;;;;21.30;99.90;;;;;;5093884;28;19954;-49
2022/05/28 04:29:07;;;;;;;;;;;21.30;99.90;;;;;;5094272;28;19916;-46
2022/05/28 04:31:33;;;;;;;;;;;21.30;99.90;;;;;;5094030;28;19912;-47
2022/05/28 04:33:59;;;;;;;;;;;21.20;99.90;;;;;;5093988;28;19909;-46
2022/05/28 04:36:24;;;;;;;;;;;21.20;99.90;;;;;;5093921;28;19916;-48
2022/05/28 04:38:49;;;;;;;;;;;21.30;99.90;;;;;;5093895;28;20248;-46
2022/05/28 04:41:16;;;;;;;;;;;21.20;99.90;;;;;;5093706;28;19940;-49
2022/05/28 04:43:42;;;;;;;;;;;21.20;99.90;;;;;;5093847;28;19916;-48
2022/05/28 04:46:07;;;;;;;;;;;21.20;99.90;;;;;;5093477;28;19908;-46
2022/05/28 04:48:33;;;;;;;;;;;21.20;99.90;;;;;;5075757;28;19920;-46
2022/05/28 04:50:59;;;;;;;;;;;21.20;99.90;;;;;;5093567;28;19908;-47
2022/05/28 04:53:25;;;;;;;;;;;21.20;99.90;;;;;;5093431;28;19914;-45
2022/05/28 04:55:52;;;;;;;;;;;21.20;99.90;;;;;;5093625;28;19959;-45
2022/05/28 04:58:17;;;;;;;;;;;21.30;99.90;;;;;;5093579;28;19908;-48
2022/05/28 05:00:44;;;;;;;;;;;21.30;99.90;;;;;;5093833;28;19912;-50
2022/05/28 05:03:09;;;;;;;;;;;21.30;99.90;;;;;;5093775;28;20374;-46
2022/05/28 05:05:35;;;;;;;;;;;21.20;99.90;;;;;;5093269;28;19957;-49
2022/05/28 05:08:00;;;;;;;;;;;21.30;99.90;;;;;;5093406;28;19916;-46
2022/05/28 05:10:26;;;;;;;;;;;21.30;99.90;;;;;;5093447;28;19912;-45
2022/05/28 05:12:52;;;;;;;;;;;21.20;99.90;;;;;;5093252;28;19909;-49
2022/05/28 05:15:17;;;;;;;;;;;21.20;99.90;;;;;;5096260;28;19916;-46
2022/05/28 05:17:43;;;;;;;;;;;21.20;99.90;;;;;;5079095;28;20319;-48
2022/05/28 05:20:10;;;;;;;;;;;21.20;99.90;;;;;;5097002;28;19915;-47
2022/05/28 05:22:35;;;;;;;;;;;21.20;99.90;;;;;;5097329;28;19966;-46
2022/05/28 05:25:00;;;;;;;;;;;21.20;99.90;;;;;;5097056;28;19908;-45
2022/05/28 05:27:26;;;;;;;;;;;21.20;99.90;;;;;;5096997;28;19931;-49
2022/05/28 05:29:55;;;;;;;;;;;21.20;99.90;;;;;;5096980;28;19963;-46
2022/05/28 05:32:21;;;;;;;;;;;21.20;99.90;;;;;;5096975;28;19931;-45
2022/05/28 05:34:47;;;;;;;;;;;21.20;99.90;;;;;;5096397;28;19916;-47
2022/05/28 05:37:13;;;;;;;;;;;21.20;99.90;;;;;;5096801;28;19908;-46
2022/05/28 05:39:38;;;;;;;;;;;21.20;99.90;;;;;;5096748;28;19909;-47
2022/05/28 05:42:04;;;;;;;;;;;21.20;99.90;;;;;;5096430;28;20290;-48
2022/05/28 05:44:30;;;;;;;;;;;21.20;99.90;;;;;;5096854;28;19958;-49
2022/05/28 05:46:55;;;;;;;;;;;21.20;99.90;;;;;;5096696;28;19915;-47
2022/05/28 05:49:21;;;;;;;;;;;21.20;99.90;;;;;;5097048;28;19915;-47
2022/05/28 05:51:47;;;;;;;;;;;21.20;99.90;;;;;;5096430;28;19912;-47
2022/05/28 05:54:14;;;;;;;;;;;21.20;99.90;;;;;;5096162;28;19920;-47
2022/05/28 05:56:39;;;;;;;;;;;21.20;99.90;;;;;;5096223;28;19916;-48
2022/05/28 05:59:05;;;;;;;;;;;21.20;99.90;;;;;;5096450;28;19915;-50
2022/05/28 06:01:31;;;;;;;;;;;21.30;99.90;;;;;;5096135;28;20003;-49
2022/05/28 06:03:57;;;;;;;;;;;21.20;99.90;;;;;;5096154;28;19934;-47
2022/05/28 06:06:22;;;;;;;;;;;21.20;99.90;;;;;;5096026;28;19909;-45
2022/05/28 06:08:48;;;;;;;;;;;21.20;99.90;;;;;;5096527;28;20319;-45
2022/05/28 06:11:14;;;;;;;;;;;21.20;99.90;;;;;;5095919;28;19908;-45
2022/05/28 06:13:39;;;;;;;;;;;21.20;99.90;;;;;;5096521;28;20285;-46
2022/05/28 06:16:05;;;;;;;;;;;21.20;99.90;;;;;;5095754;28;19916;-49
2022/05/28 06:18:31;;;;;;;;;;;21.30;99.90;;;;;;5095743;28;19933;-46
2022/05/28 06:20:58;;;;;;;;;;;21.30;99.90;;;;;;5095717;28;19908;-49
2022/05/28 06:23:24;;;;;;;;;;;21.30;99.90;;;;;;5096001;28;19994;-50
2022/05/28 06:25:49;;;;;;;;;;;21.20;99.90;;;;;;5095529;28;19996;-51
2022/05/28 06:28:14;;;;;;;;;;;21.30;99.90;;;;;;5095490;28;19983;-46
2022/05/28 06:30:43;;;;;;;;;;;21.30;99.90;;;;;;5095600;28;19914;-50
2022/05/28 06:33:09;;;;;;;;;;;21.30;99.90;;;;;;5096006;28;19947;-49
2022/05/28 06:35:34;;;;;;;;;;;21.30;99.90;;;;;;5095542;28;19968;-46
2022/05/28 06:38:00;;;;;;;;;;;21.30;99.90;;;;;;5095560;28;19915;-46
2022/05/28 06:40:25;;;;;;;;;;;21.30;99.90;;;;;;5095430;28;20369;-48
2022/05/28 06:42:51;;;;;;;;;;;21.30;99.90;;;;;;5095962;28;20282;-50
2022/05/28 06:45:18;;;;;;;;;;;21.30;99.90;;;;;;5095554;28;19908;-46
2022/05/28 06:47:44;;;;;;;;;;;21.30;99.90;;;;;;5095250;28;19912;-48
2022/05/28 06:52:54;;;;;;;;;;;21.30;99.90;;;;;;5095238;28;19927;-45
2022/05/28 06:55:20;;;;;;;;;;;21.30;99.90;;;;;;5095161;28;19920;-46
2022/05/28 06:57:45;;;;;;;;;;;21.30;97.70;;;;;;5095175;28;19927;-46
2022/05/28 07:00:11;;;;;;;;;;;21.20;99.90;;;;;;5094859;28;20282;-50
2022/05/28 07:02:36;;;;;;;;;;;21.30;99.90;;;;;;5094767;28;19915;-47
2022/05/28 07:05:02;;;;;;;;;;;21.20;99.90;;;;;;5095018;28;19908;-48
2022/05/28 07:07:28;;;;;;;;;;;21.20;99.90;;;;;;5094779;28;19908;-47
2022/05/28 07:09:53;;;;;;;;;;;21.30;99.90;;;;;;5094927;28;20271;-47
2022/05/28 07:12:19;;;;;;;;;;;21.30;99.90;;;;;;5094678;28;19908;-47
2022/05/28 07:14:44;;;;;;;;;;;21.30;99.90;;;;;;5095141;28;19908;-47
2022/05/28 07:17:10;;;;;;;;;;;21.30;99.90;;;;;;5094529;28;20026;-48
2022/05/28 07:19:36;;;;;;;;;;;21.30;99.90;;;;;;5094589;28;19908;-49
2022/05/28 07:22:01;;;;;;;;;;;21.30;99.90;;;;;;5094802;28;19909;-46
2022/05/28 07:24:27;;;;;;;;;;;21.30;99.90;;;;;;5094735;28;20339;-50
2022/05/28 07:26:52;;;;;;;;;;;21.30;99.90;;;;;;5094525;28;20185;-51
2022/05/28 07:29:18;;;;;;;;;;;21.30;99.90;;;;;;5094673;28;20003;-47
2022/05/28 07:31:44;;;;;;;;;;;21.30;99.90;;;;;;5094404;28;19977;-45
2022/05/28 07:34:10;;;;;;;;;;;21.30;99.90;;;;;;5094327;28;19908;-47
2022/05/28 07:36:35;;;;;;;;;;;21.30;99.90;;;;;;5093733;28;19969;-46
2022/05/28 07:39:02;;;;;;;;;;;21.30;99.90;;;;;;5094039;28;19909;-51
2022/05/28 07:41:27;;;;;;;;;;;21.30;99.90;;;;;;5094316;28;19908;-50
2022/05/28 07:43:53;;;;;;;;;;;21.30;99.90;;;;;;5094152;28;19973;-46
2022/05/28 07:46:20;;;;;;;;;;;21.30;99.90;;;;;;5094405;28;20311;-47
2022/05/28 07:48:46;;;;;;;;;;;21.30;99.90;;;;;;5094001;28;19908;-47
2022/05/28 07:51:12;;;;;;;;;;;21.30;99.90;;;;;;5094356;28;19915;-47
2022/05/28 07:53:37;;;;;;;;;;;21.30;99.90;;;;;;5094031;28;19920;-50
2022/05/28 07:56:03;;;;;;;;;;;21.30;99.90;;;;;;5094220;28;19930;-48
2022/05/28 07:58:31;;;;;;;;;;;21.30;99.90;;;;;;5093449;28;20389;-47
2022/05/28 08:00:56;;;;;;;;;;;21.30;99.90;;;;;;5094027;28;19908;-46
2022/05/28 08:03:22;;;;;;;;;;;21.30;99.90;;;;;;5094115;28;20328;-49
2022/05/28 08:05:49;;;;;;;;;;;21.30;99.90;;;;;;5076218;28;19912;-45
2022/05/28 08:08:15;;;;;;;;;;;21.30;99.90;;;;;;5093817;28;20274;-51
2022/05/28 08:10:40;;;;;;;;;;;21.30;99.90;;;;;;5093826;28;19908;-48
2022/05/28 08:13:07;;;;;;;;;;;21.40;99.90;;;;;;5093785;28;19998;-50
2022/05/28 08:15:34;;;;;;;;;;;21.30;99.90;;;;;;5093559;28;19938;-50
2022/05/28 08:17:59;;;;;;;;;;;21.30;99.90;;;;;;5093937;28;19919;-46
2022/05/28 08:23:09;;;;;;;;;;;21.30;99.90;;;;;;5093678;28;19915;-49
2022/05/28 08:25:35;;;;;;;;;;;21.30;99.90;;;;;;5093663;28;19908;-50
2022/05/28 08:28:01;;;;;;;;;;;21.30;99.90;;;;;;5093152;28;19953;-49
2022/05/28 08:30:26;;;;;;;;;;;21.30;99.90;;;;;;5093536;28;19962;-46
2022/05/28 08:32:52;;;;;;;;;;;21.30;99.90;;;;;;5093774;28;20207;-45
2022/05/28 08:35:17;;;;;;;;;;;21.30;99.90;;;;;;5093865;28;20014;-50
2022/05/28 08:37:43;;;;;;;;;;;21.30;99.90;;;;;;5093492;28;20354;-43
2022/05/28 08:40:10;;;;;;;;;;;21.30;99.90;;;;;;5093285;28;19990;-46
2022/05/28 08:42:36;;;;;;;;;;;21.30;99.90;;;;;;5075155;28;20090;-45
2022/05/28 08:45:04;;;;;;;;;;;21.30;99.90;;;;;;5093270;28;19908;-44
2022/05/28 08:47:33;;;;;;;;;;;21.30;99.90;;;;;;5075077;28;19915;-46
2022/05/28 08:49:59;;;;;;;;;;;21.30;99.90;;;;;;5097655;28;19951;-44
2022/05/28 08:52:33;;;;;;;;;;;21.30;99.90;;;;;;5079494;28;20389;-45
2022/05/28 08:55:05;;;;;;;;;;;21.30;99.90;;;;;;5097360;28;19924;-46
2022/05/28 08:57:49;;;;;;;;;;;21.30;99.90;;;;;;5078871;28;19966;-43
2022/05/28 09:00:19;;;;;;;;;;;21.30;99.90;;;;;;5097280;28;19915;-48
2022/05/28 09:02:55;;;;;;;;;;;21.30;99.90;;;;;;5097266;28;20002;-46
2022/05/28 09:05:47;;;;;;;;;;;21.30;99.90;;;;;;5097536;28;19908;-46
2022/05/28 09:08:13;;;;;;;;;;;21.30;99.90;;;;;;5058270;28;19991;-44
2022/05/28 09:10:44;;;;;;;;;;;21.30;99.90;;;;;;5096868;28;19909;-45
2022/05/28 09:13:22;;;;;;;;;;;21.30;99.90;;;;;;5097123;28;19915;-45
2022/05/28 09:15:48;;;;;;;;;;;21.30;99.90;;;;;;5096632;28;19916;-48
2022/05/28 09:18:14;;;;;;;;;;;21.30;99.90;;;;;;5097076;28;20278;-44
2022/05/28 09:20:43;;;;;;;;;;;21.30;99.90;;;;;;5096657;28;19927;-45
2022/05/28 09:23:09;;;;;;;;;;;21.30;99.90;;;;;;5097004;28;20211;-47
2022/05/28 09:25:37;;;;;;;;;;;21.30;99.90;;;;;;5096808;28;20255;-45
2022/05/28 09:28:23;;;;;;;;;;;21.30;99.90;;;;;;5095891;28;19940;-46
2022/05/28 09:31:00;;;;;;;;;;;21.30;99.90;;;;;;5047613;28;19912;-45
2022/05/28 09:33:44;;;;;;;;;;;21.40;99.90;;;;;;5096511;28;19948;-49
2022/05/28 09:36:13;;;;;;;;;;;21.40;99.90;;;;;;5096509;28;19923;-45
2022/05/28 09:38:44;;;;;;;;;;;21.40;99.90;;;;;;5096339;28;19915;-44
2022/05/28 09:41:22;;;;;;;;;;;21.30;99.90;;;;;;5096246;28;20053;-44
2022/05/28 09:43:54;;;;;;;;;;;21.30;99.90;;;;;;5096369;28;19915;-48
2022/05/28 09:46:31;;;;;;;;;;;21.30;99.90;;;;;;5078300;28;19908;-44
2022/05/28 09:49:03;;;;;;;;;;;21.30;99.90;;;;;;5096259;28;19909;-46
2022/05/28 09:51:30;;;;;;;;;;;21.30;99.90;;;;;;5096475;28;19908;-46
2022/05/28 09:54:18;;;;;;;;;;;21.30;99.90;;;;;;5096245;28;19964;-47
2022/05/28 09:56:45;;;;;;;;;;;21.40;99.90;;;;;;5095932;28;19919;-45
2022/05/28 09:59:19;;;;;;;;;;;21.30;99.90;;;;;;5096035;28;19915;-45
2022/05/28 10:01:51;;;;;;;;;;;21.30;99.90;;;;;;5095970;28;19995;-46
2022/05/28 10:04:29;;;;;;;;;;;21.20;98.40;;;;;;5096543;28;19947;-44
2022/05/28 10:06:56;;;;;;;;;;;21.30;99.10;;;;;;5096004;28;19930;-50
2022/05/28 10:09:34;;;;;;;;;;;21.30;99.70;;;;;;5077695;28;19908;-44
2022/05/28 10:12:01;;;;;;;;;;;21.30;99.90;;;;;;5095853;28;20358;-49
2022/05/28 10:14:29;;;;;;;;;;;21.40;99.90;;;;;;5095821;28;19915;-48
2022/05/28 10:16:56;;;;;;;;;;;21.30;99.90;;;;;;5095372;28;19969;-46
2022/05/28 10:19:25;;;;;;;;;;;21.40;99.90;;;;;;5095473;28;19961;-48
2022/05/28 10:21:52;;;;;;;;;;;21.30;99.90;;;;;;5095085;28;20373;-44
2022/05/28 10:24:19;;;;;;;;;;;21.40;99.90;;;;;;5094994;28;19912;-48
2022/05/28 10:26:46;;;;;;;;;;;21.40;99.90;;;;;;5094975;28;19908;-46
2022/05/28 10:29:19;;;;;;;;;;;21.40;99.90;;;;;;5095018;28;20317;-47
2022/05/28 10:31:46;;;;;;;;;;;21.40;99.90;;;;;;5094864;28;20340;-49
2022/05/28 10:34:22;;;;;;;;;;;21.40;99.90;;;;;;5095530;28;19950;-49
2022/05/28 10:36:48;;;;;;;;;;;21.40;99.90;;;;;;5095121;28;19916;-47
2022/05/28 10:39:14;;;;;;;;;;;21.40;99.90;;;;;;5095035;28;19919;-44
2022/05/28 10:41:42;;;;;;;;;;;21.40;99.90;;;;;;5094991;28;19912;-44
2022/05/28 10:44:08;;;;;;;;;;;21.40;99.90;;;;;;5095172;28;19944;-45
2022/05/28 10:46:43;;;;;;;;;;;21.40;99.90;;;;;;5095351;28;19912;-43
2022/05/28 10:49:14;;;;;;;;;;;21.40;99.90;;;;;;5094934;28;19908;-47
2022/05/28 10:51:40;;;;;;;;;;;21.40;99.90;;;;;;5095455;28;19908;-45
2022/05/28 10:54:05;;;;;;;;;;;21.40;99.90;;;;;;5094718;28;19920;-45
2022/05/28 10:56:49;;;;;;;;;;;21.40;99.90;;;;;;5095103;28;19916;-46
2022/05/28 10:59:44;;;;;;;;;;;21.40;99.90;;;;;;5076733;28;19958;-44
2022/05/28 11:02:30;;;;;;;;;;;21.40;99.90;;;;;;5077125;28;19908;-46
2022/05/28 11:05:19;;;;;;;;;;;21.40;99.90;;;;;;5053242;28;20366;-46
2022/05/28 11:07:51;;;;;;;;;;;21.40;99.90;;;;;;5056313;28;19908;-45
2022/05/28 11:10:49;;;;;;;;;;;21.40;99.90;;;;;;5094415;28;19909;-47
2022/05/28 11:13:33;;;;;;;;;;;21.40;99.90;;;;;;5048612;28;20343;-43
2022/05/28 11:16:24;;;;;;;;;;;21.40;99.90;;;;;;5094260;28;19924;-45
2022/05/28 11:19:02;;;;;;;;;;;21.40;99.90;;;;;;5094727;28;19908;-47
2022/05/28 11:21:31;;;;;;;;;;;21.40;99.90;;;;;;5094870;28;19916;-46
2022/05/28 11:24:03;;;;;;;;;;;21.30;99.90;;;;;;5094561;28;20002;-45
2022/05/28 11:26:42;;;;;;;;;;;21.30;99.90;;;;;;5094007;28;19908;-46
2022/05/28 11:29:23;;;;;;;;;;;21.40;99.90;;;;;;5094428;28;19909;-48
2022/05/28 11:31:48;;;;;;;;;;;21.40;99.90;;;;;;5094456;28;19908;-46
2022/05/28 11:34:20;;;;;;;;;;;21.40;99.90;;;;;;5094154;28;19915;-47
2022/05/28 11:36:48;;;;;;;;;;;21.30;99.90;;;;;;5094387;28;19916;-46
2022/05/28 11:39:13;;;;;;;;;;;21.30;99.90;;;;;;5094525;28;19916;-45
2022/05/28 11:41:52;;;;;;;;;;;21.40;99.90;;;;;;5094536;28;20362;-46
2022/05/28 11:44:23;;;;;;;;;;;21.40;99.90;;;;;;5075989;28;20011;-43
2022/05/28 11:46:49;;;;;;;;;;;21.30;99.90;;;;;;5094708;28;19908;-46
2022/05/28 11:52:03;;;;;;;;;;;21.40;99.90;;;;;;5042251;28;20002;-42
2022/05/28 11:54:33;;;;;;;;;;;21.40;99.90;;;;;;5093883;28;20342;-43
2022/05/28 11:57:03;;;;;;;;;;;21.40;99.90;;;;;;5075741;28;19916;-45
2022/05/28 11:59:29;;;;;;;;;;;21.40;99.90;;;;;;5093493;28;19908;-45
2022/05/28 12:02:00;;;;;;;;;;;21.40;99.90;;;;;;5093882;28;20483;-45
2022/05/28 12:04:26;;;;;;;;;;;21.40;99.90;;;;;;5094108;28;19908;-47
2022/05/28 12:07:00;;;;;;;;;;;21.40;98.20;;;;;;5093821;28;20002;-44
2022/05/28 12:09:28;;;;;;;;;;;21.30;96.40;;;;;;5093650;28;19908;-44
2022/05/28 12:11:59;;;;;;;;;;;21.30;96.10;;;;;;5093517;28;19935;-47
2022/05/28 12:14:33;;;;;;;;;;;21.20;97.80;;;;;;5093928;28;19912;-46
2022/05/28 12:17:02;;;;;;;;;;;21.30;98.60;;;;;;5093810;28;19920;-45
2022/05/28 12:19:28;;;;;;;;;;;21.30;99.20;;;;;;5093916;28;19959;-43
2022/05/28 12:22:04;;;;;;;;;;;21.40;99.50;;;;;;5093655;28;19947;-46
2022/05/28 12:24:30;;;;;;;;;;;21.30;99.80;;;;;;5096827;28;19915;-43
2022/05/28 12:29:43;;;;;;;;;;;21.40;99.90;;;;;;5098068;28;19919;-47
2022/05/28 12:32:20;;;;;;;;;;;21.40;99.90;;;;;;5098012;28;19931;-44
2022/05/28 12:34:54;;;;;;;;;;;21.40;99.90;;;;;;5097676;28;19916;-49
2022/05/28 12:37:22;;;;;;;;;;;21.40;99.90;;;;;;5097952;28;19961;-45
2022/05/28 12:39:57;;;;;;;;;;;21.40;99.90;;;;;;5097831;28;19931;-44
2022/05/28 12:42:26;;;;;;;;;;;21.40;99.90;;;;;;5079692;28;20211;-44
2022/05/28 12:44:52;;;;;;;;;;;21.40;99.90;;;;;;5097725;28;19908;-46
2022/05/28 12:47:27;;;;;;;;;;;21.40;99.90;;;;;;5097788;28;19985;-45
2022/05/28 12:50:11;;;;;;;;;;;21.40;99.90;;;;;;5097366;28;19969;-45
2022/05/28 12:52:49;;;;;;;;;;;21.40;99.90;;;;;;5096897;28;19920;-47
2022/05/28 12:55:19;;;;;;;;;;;21.40;99.90;;;;;;5097590;28;20342;-47
2022/05/28 12:58:17;;;;;;;;;;;21.40;99.90;;;;;;5097599;28;19908;-45
2022/05/28 13:00:57;;;;;;;;;;;21.40;99.90;;;;;;5045752;28;19909;-45
2022/05/28 13:03:24;;;;;;;;;;;21.40;99.90;;;;;;5097456;28;19969;-43
2022/05/28 13:06:00;;;;;;;;;;;21.40;99.90;;;;;;5097332;28;19991;-46
2022/05/28 13:08:28;;;;;;;;;;;21.50;99.90;;;;;;5096627;28;19958;-47
2022/05/28 13:10:57;;;;;;;;;;;21.40;99.90;;;;;;5096762;28;19934;-49
2022/05/28 13:13:23;;;;;;;;;;;21.40;99.90;;;;;;5096819;28;20270;-49
2022/05/28 13:16:07;;;;;;;;;;;21.40;99.90;;;;;;5078520;28;19923;-47
2022/05/28 13:18:51;;;;;;;;;;;21.40;99.90;;;;;;5095328;28;19908;-43
2022/05/28 13:21:31;;;;;;;;;;;21.40;99.90;;;;;;5094947;28;20286;-50
2022/05/28 13:24:12;;;;;;;;;;;21.40;99.90;;;;;;5096511;28;20424;-47
2022/05/28 13:26:37;;;;;;;;;;;21.40;99.90;;;;;;5096620;28;20007;-49
2022/05/28 13:29:16;;;;;;;;;;;21.40;99.90;;;;;;5096304;28;19912;-48
2022/05/28 13:31:46;;;;;;;;;;;21.50;99.90;;;;;;5078615;28;19938;-45
2022/05/28 13:34:38;;;;;;;;;;;21.40;99.90;;;;;;5096399;28;19961;-48
2022/05/28 13:37:04;;;;;;;;;;;21.40;99.90;;;;;;5092212;28;19921;-47
2022/05/28 13:39:31;;;;;;;;;;;21.40;99.90;;;;;;5096386;28;20012;-47
2022/05/28 13:41:57;;;;;;;;;;;21.40;99.90;;;;;;5078359;28;19908;-47
2022/05/28 13:44:27;;;;;;;;;;;21.40;99.90;;;;;;5096321;28;20279;-43
2022/05/28 13:46:56;;;;;;;;;;;21.40;99.90;;;;;;5096618;28;19912;-45
2022/05/28 13:49:23;;;;;;;;;;;21.40;99.90;;;;;;5096429;28;19966;-48
2022/05/28 13:51:54;;;;;;;;;;;21.40;99.90;;;;;;5096473;28;19912;-48
2022/05/28 13:54:20;;;;;;;;;;;21.40;99.90;;;;;;5096234;28;20244;-46
2022/05/28 13:57:06;;;;;;;;;;;21.40;99.90;;;;;;5096125;28;19923;-47
2022/05/28 13:59:31;;;;;;;;;;;21.40;99.90;;;;;;5095267;28;19908;-44
2022/05/28 14:01:57;;;;;;;;;;;21.40;99.90;;;;;;5095943;28;20056;-45
2022/05/28 14:04:25;;;;;;;;;;;21.40;99.90;;;;;;5096173;28;19908;-50
2022/05/28 14:06:50;;;;;;;;;;;21.40;99.90;;;;;;5096070;28;19908;-45
2022/05/28 14:09:16;;;;;;;;;;;21.40;99.90;;;;;;5095803;28;20347;-44
2022/05/28 14:11:42;;;;;;;;;;;21.40;99.90;;;;;;5077619;28;19947;-49
2022/05/28 14:14:18;;;;;;;;;;;21.50;99.90;;;;;;5095797;28;19909;-48
2022/05/28 14:16:48;;;;;;;;;;;21.40;99.90;;;;;;5095941;28;19920;-45
2022/05/28 14:19:25;;;;;;;;;;;21.40;99.90;;;;;;5095910;28;19959;-45
2022/05/28 14:21:52;;;;;;;;;;;21.50;99.90;;;;;;5095861;28;20375;-50
2022/05/28 14:24:20;;;;;;;;;;;21.50;99.90;;;;;;5095718;28;20144;-50
2022/05/28 14:26:53;;;;;;;;;;;21.50;99.90;;;;;;5095864;28;19915;-47
2022/05/28 14:29:22;;;;;;;;;;;21.40;99.90;;;;;;5095737;28;19915;-46
2022/05/28 14:31:47;;;;;;;;;;;21.50;99.90;;;;;;5095799;28;19955;-46
2022/05/28 14:34:16;;;;;;;;;;;21.50;99.90;;;;;;5095626;28;19939;-45
2022/05/28 14:36:48;;;;;;;;;;;21.40;99.90;;;;;;5095060;28;19926;-50